Titus, Alabama
Current Conditions -  °F | °C
As of 9:35 AM on Monday 29 Dec 2014 (Local Time) from K1A9 Reporting Station
Overcast Overcast  
Wind Chill: 56°   Ceiling: 700
Heat Index: 56°   Visibility: 10mi
Dew Point: 54°   Wind: 0mph
Humidity: 92%   Direction: NA
Pressure: 30.15"   Gusts: NA
Location:  32.71°N, 86.32°W
Report Text: K1A9 291535Z AUTO 00000KT 10SM OVC007 14/12 A3015 RMK AO2 T01350122
Loading
Personal Weather Stations






























Interactive Weather Map New forecast layout! Learn more

10-Day Weather Forecast

Advertisements
Track Severe Weather on mobile